Time;durP1;ratioP1;P1;durP2;ratioP2;P2;SDS_P1;SDS_P2;PMS_P1;PMS_P2;Temp;Humidity;BMP_temperature;BMP_pressure;BME280_temperature;BME280_humidity;BME280_pressure;Samples;Min_cycle;Max_cycle;Signal;HPM_P1;HPM_P2
2022/05/22 00:01:49;;;;;;;3.07;2.00;;;13.50;99.90;;;;;;5034786;28;20186;-88
2022/05/22 00:04:15;;;;;;;2.70;1.80;;;13.50;99.90;;;;;;5034789;28;20201;-87
2022/05/22 00:06:41;;;;;;;2.00;1.80;;;13.50;99.90;;;;;;5034638;28;20205;-88
2022/05/22 00:09:07;;;;;;;2.77;1.80;;;13.50;99.90;;;;;;5034561;28;20241;-88
2022/05/22 00:11:33;;;;;;;2.70;2.20;;;13.40;99.90;;;;;;5034635;28;20185;-88
2022/05/22 00:13:59;;;;;;;3.30;2.20;;;13.50;99.90;;;;;;5034622;28;20189;-88
2022/05/22 00:16:40;;;;;;;5.60;2.40;;;13.50;99.90;;;;;;5034499;28;20292;-87
2022/05/22 00:19:10;;;;;;;2.27;1.97;;;13.50;99.90;;;;;;5034491;28;20196;-87
2022/05/22 00:21:37;;;;;;;2.90;2.20;;;13.50;99.90;;;;;;5034579;28;20650;-87
2022/05/22 00:24:04;;;;;;;3.67;2.27;;;13.40;99.90;;;;;;5034763;28;20177;-87
2022/05/22 00:26:31;;;;;;;4.03;2.20;;;13.40;99.90;;;;;;5034655;28;20205;-87
2022/05/22 00:28:57;;;;;;;3.70;2.23;;;13.40;99.90;;;;;;5034270;28;20185;-88
2022/05/22 00:31:23;;;;;;;3.20;2.00;;;13.20;99.90;;;;;;5034510;28;20188;-88
2022/05/22 00:33:48;;;;;;;2.43;2.00;;;13.10;99.90;;;;;;5034180;28;20189;-87
2022/05/22 00:36:15;;;;;;;3.80;2.20;;;13.20;99.90;;;;;;5034434;28;20208;-87
2022/05/22 00:38:41;;;;;;;2.50;2.20;;;13.20;99.90;;;;;;5034396;28;20178;-88
2022/05/22 00:41:09;;;;;;;4.17;2.20;;;13.20;99.90;;;;;;5034369;28;20188;-88
2022/05/22 00:43:42;;;;;;;2.43;1.90;;;13.30;99.90;;;;;;5034302;28;20174;-87
2022/05/22 00:46:13;;;;;;;3.13;2.10;;;13.30;99.90;;;;;;5018180;28;20198;-87
2022/05/22 00:48:43;;;;;;;3.30;2.00;;;13.30;99.90;;;;;;5034712;28;20200;-87
2022/05/22 00:51:13;;;;;;;3.20;2.20;;;13.40;99.90;;;;;;5034176;28;20181;-87
2022/05/22 00:53:45;;;;;;;2.40;1.97;;;13.40;99.90;;;;;;5034300;28;20204;-88
2022/05/22 00:56:17;;;;;;;2.13;1.93;;;13.50;99.90;;;;;;5034168;28;20217;-87
2022/05/22 00:58:45;;;;;;;3.77;2.30;;;13.60;99.90;;;;;;5034376;28;20177;-88
2022/05/22 01:01:11;;;;;;;2.27;2.00;;;13.60;99.90;;;;;;5036005;28;20188;-88
2022/05/22 01:03:38;;;;;;;2.57;2.13;;;13.50;99.90;;;;;;5037445;28;20239;-88
2022/05/22 01:06:10;;;;;;;2.17;1.90;;;13.50;99.90;;;;;;5037563;28;20205;-87
2022/05/22 01:08:37;;;;;;;3.20;2.10;;;13.40;99.90;;;;;;5037812;28;20252;-87
2022/05/22 01:11:13;;;;;;;3.97;2.17;;;13.30;99.90;;;;;;5037592;28;20185;-87
2022/05/22 01:13:44;;;;;;;3.00;2.10;;;13.20;99.90;;;;;;5037649;28;20185;-87
2022/05/22 01:16:10;;;;;;;2.13;1.93;;;13.20;99.90;;;;;;5037575;28;20213;-87
2022/05/22 01:18:46;;;;;;;2.37;2.07;;;13.10;99.90;;;;;;5037716;28;20197;-87
2022/05/22 01:21:53;;;;;;;3.13;2.23;;;13.00;99.90;;;;;;5020998;28;20654;-87
2022/05/22 01:24:20;;;;;;;3.60;2.20;;;13.00;99.90;;;;;;5021001;28;20178;-87
2022/05/22 01:26:48;;;;;;;4.00;2.20;;;13.20;99.90;;;;;;5037777;28;20203;-87
2022/05/22 01:29:24;;;;;;;3.43;2.20;;;13.10;99.90;;;;;;5037252;28;20181;-87
2022/05/22 01:31:50;;;;;;;3.67;2.33;;;13.10;99.90;;;;;;5037875;28;20191;-88
2022/05/22 01:34:17;;;;;;;3.93;2.50;;;13.00;99.90;;;;;;5037446;28;20231;-87
2022/05/22 01:36:44;;;;;;;3.10;2.57;;;12.90;99.90;;;;;;5037522;28;20219;-87
2022/05/22 01:39:10;;;;;;;3.53;2.43;;;12.80;99.90;;;;;;5036953;28;20181;-87
2022/05/22 01:41:57;;;;;;;4.37;2.33;;;12.70;99.90;;;;;;5037520;28;20186;-87
2022/05/22 01:44:23;;;;;;;4.60;2.43;;;12.70;99.90;;;;;;5031242;28;20179;-87
2022/05/22 01:46:50;;;;;;;3.20;2.17;;;12.70;99.90;;;;;;5017257;28;20203;-87
2022/05/22 01:49:16;;;;;;;3.40;2.07;;;12.70;99.90;;;;;;5000892;28;20239;-87
2022/05/22 01:51:42;;;;;;;3.17;2.03;;;12.70;99.90;;;;;;5000872;28;20189;-87
2022/05/22 01:54:08;;;;;;;3.03;2.30;;;12.70;99.90;;;;;;5000725;28;20177;-87
2022/05/22 01:56:37;;;;;;;3.33;2.47;;;12.70;99.90;;;;;;5000866;28;20255;-87
2022/05/22 01:59:05;;;;;;;3.43;2.27;;;12.60;99.90;;;;;;5000871;28;20261;-87
2022/05/22 02:01:34;;;;;;;3.97;2.30;;;12.40;99.90;;;;;;5001391;28;20304;-87
2022/05/22 02:04:04;;;;;;;2.83;2.33;;;12.30;99.90;;;;;;5002269;28;20181;-87
2022/05/22 02:06:33;;;;;;;3.10;2.40;;;12.20;99.90;;;;;;5000880;28;20203;-87
2022/05/22 02:09:08;;;;;;;5.00;2.50;;;12.20;99.90;;;;;;5001705;28;20190;-87
2022/05/22 02:11:39;;;;;;;4.07;2.40;;;12.20;99.90;;;;;;5001287;28;20257;-87
2022/05/22 02:14:06;;;;;;;4.43;2.60;;;12.00;99.90;;;;;;5000366;28;20518;-87
2022/05/22 02:16:31;;;;;;;2.50;2.30;;;12.10;99.90;;;;;;5000303;28;20754;-87
2022/05/22 02:18:57;;;;;;;4.67;2.80;;;12.00;99.90;;;;;;5000491;28;20193;-87
2022/05/22 02:21:27;;;;;;;3.40;2.70;;;12.00;99.90;;;;;;5001051;28;20259;-87
2022/05/22 02:23:52;;;;;;;5.67;2.70;;;11.90;99.90;;;;;;5000380;28;20262;-87
2022/05/22 02:26:20;;;;;;;5.57;2.70;;;12.00;99.90;;;;;;5000485;28;20200;-87
2022/05/22 02:28:46;;;;;;;4.10;2.73;;;12.10;99.90;;;;;;5001035;28;20189;-87
2022/05/22 02:31:14;;;;;;;4.00;2.37;;;12.10;99.90;;;;;;4999429;28;20373;-87
2022/05/22 02:33:44;;;;;;;3.83;2.67;;;12.20;99.90;;;;;;4999363;28;20186;-87
2022/05/22 02:36:14;;;;;;;4.50;2.63;;;12.20;99.90;;;;;;5000257;28;20239;-87
2022/05/22 02:38:41;;;;;;;4.37;2.30;;;12.30;99.90;;;;;;5016670;28;20176;-87
2022/05/22 02:41:15;;;;;;;3.33;2.60;;;12.30;99.90;;;;;;5000367;28;20728;-87
2022/05/22 02:43:45;;;;;;;3.10;2.37;;;12.20;99.90;;;;;;5000803;28;20169;-88
2022/05/22 02:46:14;;;;;;;4.93;2.80;;;12.20;99.90;;;;;;5016508;28;20205;-88
2022/05/22 02:48:40;;;;;;;5.27;2.80;;;12.20;99.90;;;;;;4999820;28;20181;-87
2022/05/22 02:51:12;;;;;;;5.83;2.40;;;12.20;99.90;;;;;;4999856;28;20195;-87
2022/05/22 02:53:50;;;;;;;3.43;2.50;;;12.10;99.90;;;;;;4999844;28;20207;-87
2022/05/22 02:56:58;;;;;;;2.97;2.53;;;12.00;99.90;;;;;;5002110;28;20222;-87
2022/05/22 02:59:33;;;;;;;4.03;2.63;;;12.00;99.90;;;;;;5017023;28;20191;-87
2022/05/22 03:02:26;;;;;;;3.73;2.80;;;11.90;99.90;;;;;;5003223;28;20178;-87
2022/05/22 03:04:54;;;;;;;4.87;2.60;;;11.90;99.90;;;;;;4999378;28;20179;-87
2022/05/22 03:07:20;;;;;;;3.70;2.20;;;11.80;99.90;;;;;;4999234;28;20223;-87
2022/05/22 03:09:48;;;;;;;2.90;2.40;;;11.80;99.90;;;;;;5015949;28;20178;-87
2022/05/22 03:12:17;;;;;;;4.03;2.93;;;11.70;99.90;;;;;;4999289;28;20183;-87
2022/05/22 03:14:49;;;;;;;5.07;2.47;;;11.80;99.90;;;;;;4999883;28;20200;-87
2022/05/22 03:17:16;;;;;;;2.90;2.40;;;11.90;99.90;;;;;;5015718;28;20204;-87
2022/05/22 03:19:46;;;;;;;4.80;2.67;;;11.80;99.90;;;;;;4999851;28;20196;-87
2022/05/22 03:22:14;;;;;;;3.73;2.60;;;11.90;99.90;;;;;;4999787;28;20189;-87
2022/05/22 03:24:40;;;;;;;2.83;2.27;;;11.90;99.90;;;;;;4999156;28;20178;-87
2022/05/22 03:27:11;;;;;;;4.83;2.40;;;11.90;99.90;;;;;;4999276;28;20221;-87
2022/05/22 03:29:38;;;;;;;4.10;2.50;;;11.90;99.90;;;;;;4999446;28;20175;-87
2022/05/22 03:32:05;;;;;;;3.43;2.27;;;11.90;99.90;;;;;;4999374;28;20180;-87
2022/05/22 03:34:31;;;;;;;3.17;2.30;;;11.80;99.90;;;;;;5014820;28;20322;-87
2022/05/22 03:36:57;;;;;;;2.40;2.17;;;11.70;99.90;;;;;;5002523;28;20256;-87
2022/05/22 03:39:23;;;;;;;2.30;2.10;;;11.60;99.90;;;;;;5026497;28;20227;-87
2022/05/22 03:41:50;;;;;;;2.73;2.10;;;11.60;99.90;;;;;;5034999;28;20187;-87
2022/05/22 03:44:19;;;;;;;4.03;2.23;;;11.60;99.90;;;;;;5034927;28;20195;-87
2022/05/22 03:47:08;;;;;;;2.87;2.47;;;11.60;99.90;;;;;;5034968;28;20219;-87
2022/05/22 03:50:05;;;;;;;3.13;2.43;;;11.50;99.90;;;;;;5037373;28;20204;-87
2022/05/22 03:52:33;;;;;;;2.73;2.30;;;11.50;99.90;;;;;;5024001;28;20180;-87
2022/05/22 03:54:59;;;;;;;4.33;2.20;;;11.50;99.90;;;;;;4999165;28;20183;-87
2022/05/22 03:57:25;;;;;;;2.33;2.13;;;11.40;99.90;;;;;;4998859;28;20205;-87
2022/05/22 03:59:54;;;;;;;2.73;2.20;;;11.40;99.90;;;;;;5000024;28;20204;-87
2022/05/22 04:02:37;;;;;;;3.23;2.27;;;11.40;99.90;;;;;;5027672;28;20194;-87
2022/05/22 04:05:07;;;;;;;3.63;2.03;;;11.40;99.90;;;;;;5038834;28;20177;-87
2022/05/22 04:07:41;;;;;;;3.10;2.43;;;11.50;99.90;;;;;;5019864;28;20217;-87
2022/05/22 04:10:11;;;;;;;4.03;2.43;;;11.40;99.90;;;;;;4998970;28;20205;-87
2022/05/22 04:12:38;;;;;;;4.40;2.20;;;11.40;99.90;;;;;;4998684;28;20178;-87
2022/05/22 04:15:08;;;;;;;3.60;2.13;;;11.40;99.90;;;;;;5021974;28;20169;-89
2022/05/22 04:17:35;;;;;;;3.50;2.50;;;11.40;99.90;;;;;;5046430;28;20275;-86
2022/05/22 04:20:09;;;;;;;3.50;2.47;;;11.50;99.90;;;;;;5034718;28;20201;-87
2022/05/22 04:25:11;;;;;;;3.67;2.20;;;11.50;99.90;;;;;;5035052;28;20223;-88
2022/05/22 04:25:25;;;;;;;4.17;2.50;;;11.50;99.90;;;;;;5034552;28;20205;-88
2022/05/22 04:27:53;;;;;;;4.10;2.20;;;11.60;99.90;;;;;;5035072;28;20172;-88
2022/05/22 04:30:20;;;;;;;3.47;2.30;;;11.60;99.90;;;;;;5034427;28;20186;-88
2022/05/22 04:32:53;;;;;;;4.17;2.43;;;11.50;99.90;;;;;;5019125;28;20167;-88
2022/05/22 04:35:22;;;;;;;3.03;2.67;;;11.50;99.90;;;;;;5034925;28;20178;-88
2022/05/22 04:37:49;;;;;;;4.23;2.63;;;11.40;99.90;;;;;;5038290;28;20207;-88
2022/05/22 04:40:16;;;;;;;3.90;2.33;;;11.20;99.90;;;;;;5038350;28;20187;-88
2022/05/22 04:42:42;;;;;;;3.40;2.20;;;11.30;99.90;;;;;;5038520;28;20185;-88
2022/05/22 04:45:10;;;;;;;3.57;2.50;;;11.40;99.90;;;;;;5038517;28;20189;-88
2022/05/22 04:47:54;;;;;;;2.97;2.47;;;11.50;99.90;;;;;;5041177;28;20166;-87
2022/05/22 04:50:26;;;;;;;4.33;2.90;;;11.60;99.90;;;;;;5038493;28;20171;-88
2022/05/22 04:53:25;;;;;;;3.70;2.67;;;11.70;99.90;;;;;;5033750;28;20201;-88
2022/05/22 04:56:05;;;;;;;2.80;2.60;;;11.80;99.90;;;;;;5038217;28;20206;-88
2022/05/22 04:58:38;;;;;;;2.70;2.50;;;11.90;99.90;;;;;;5038297;28;20172;-88
2022/05/22 05:01:10;;;;;;;3.37;2.60;;;12.00;99.90;;;;;;5038465;28;20530;-88
2022/05/22 05:03:44;;;;;;;3.33;2.47;;;12.00;99.90;;;;;;5038085;28;20174;-88
2022/05/22 05:06:10;;;;;;;4.30;2.53;;;12.10;99.90;;;;;;5037289;28;20217;-88
2022/05/22 05:08:38;;;;;;;4.27;2.60;;;12.20;99.90;;;;;;5037036;28;20199;-88
2022/05/22 05:11:13;;;;;;;4.77;2.50;;;12.30;99.90;;;;;;5038328;28;20175;-88
2022/05/22 05:13:48;;;;;;;2.83;2.53;;;12.50;99.90;;;;;;5039139;28;20179;-88
2022/05/22 05:16:23;;;;;;;5.30;2.53;;;12.50;99.90;;;;;;5037550;28;20231;-88
2022/05/22 05:18:56;;;;;;;3.90;2.90;;;12.60;99.90;;;;;;5037543;28;20203;-88
2022/05/22 05:21:28;;;;;;;4.47;2.67;;;12.70;99.90;;;;;;5037523;28;20179;-88
2022/05/22 05:23:58;;;;;;;2.73;2.30;;;12.80;99.90;;;;;;5037615;28;20211;-87
2022/05/22 05:26:26;;;;;;;3.73;2.40;;;12.90;99.90;;;;;;5037616;28;20246;-88
2022/05/22 05:28:55;;;;;;;2.87;2.33;;;13.00;99.90;;;;;;5037506;28;20272;-88
2022/05/22 05:31:30;;;;;;;2.93;2.57;;;13.00;99.90;;;;;;5037791;28;20189;-88
2022/05/22 05:33:56;;;;;;;4.43;2.53;;;13.20;99.90;;;;;;5037558;28;20531;-88
2022/05/22 05:36:38;;;;;;;4.00;2.60;;;13.30;99.90;;;;;;5037443;28;20204;-88
2022/05/22 05:39:37;;;;;;;6.47;2.60;;;13.40;99.90;;;;;;5037376;28;20186;-88
2022/05/22 05:42:12;;;;;;;2.87;2.43;;;13.50;99.90;;;;;;5037586;28;20528;-88
2022/05/22 05:45:02;;;;;;;3.37;2.63;;;13.60;99.90;;;;;;5037082;28;20235;-87
2022/05/22 05:47:33;;;;;;;4.33;2.80;;;13.60;99.90;;;;;;5037120;28;20205;-87
2022/05/22 05:50:10;;;;;;;6.33;2.87;;;13.50;99.90;;;;;;5036971;28;20260;-88
2022/05/22 05:53:00;;;;;;;4.93;2.60;;;13.40;99.90;;;;;;5037134;28;20192;-88
2022/05/22 05:55:41;;;;;;;3.33;2.80;;;13.30;99.90;;;;;;5039671;28;20166;-88
2022/05/22 05:58:25;;;;;;;4.13;2.63;;;13.40;99.90;;;;;;5039930;28;20170;-88
2022/05/22 06:00:58;;;;;;;4.40;2.70;;;13.40;99.90;;;;;;5035888;28;20927;-88
2022/05/22 06:03:26;;;;;;;4.43;2.60;;;13.60;99.90;;;;;;5044858;28;20246;-88
2022/05/22 06:05:56;;;;;;;4.47;3.00;;;13.80;99.90;;;;;;5021027;28;20295;-88
2022/05/22 06:08:28;;;;;;;6.50;2.73;;;14.10;99.90;;;;;;5021564;28;20230;-88
2022/05/22 06:11:24;;;;;;;4.07;3.00;;;14.50;99.90;;;;;;5021383;28;20166;-88
2022/05/22 06:13:50;;;;;;;3.90;2.57;;;14.80;99.90;;;;;;5020180;28;20174;-88
2022/05/22 06:16:20;;;;;;;3.30;2.60;;;15.10;99.90;;;;;;5020346;28;20197;-85
2022/05/22 06:18:55;;;;;;;3.33;2.70;;;15.40;99.90;;;;;;5037547;28;20292;-90
2022/05/22 06:21:23;;;;;;;2.50;2.30;;;15.50;99.90;;;;;;5030184;28;20171;-88
2022/05/22 06:23:58;;;;;;;2.80;2.40;;;15.60;99.90;;;;;;5001157;28;20294;-88
2022/05/22 06:26:44;;;;;;;3.03;2.37;;;15.60;99.90;;;;;;4990282;28;20286;-89
2022/05/22 06:29:29;;;;;;;5.00;2.40;;;15.60;99.90;;;;;;5038197;28;20181;-87
2022/05/22 06:32:20;;;;;;;2.83;2.40;;;15.50;99.90;;;;;;5036598;28;20209;-88
2022/05/22 06:35:06;;;;;;;2.43;2.20;;;15.40;99.90;;;;;;5033287;28;20265;-89
2022/05/22 06:38:01;;;;;;;3.47;2.50;;;15.50;99.90;;;;;;4985499;28;20216;-89
2022/05/22 06:40:46;;;;;;;3.23;2.70;;;15.70;99.90;;;;;;5019382;28;20228;-88
2022/05/22 06:43:39;;;;;;;2.63;2.30;;;15.80;99.90;;;;;;5017505;28;20179;-88
2022/05/22 06:46:30;;;;;;;3.37;2.47;;;15.90;99.90;;;;;;5019392;28;20221;-89
2022/05/22 06:49:18;;;;;;;4.77;3.23;;;16.20;99.90;;;;;;5019819;28;20173;-91
2022/05/22 06:52:02;;;;;;;7.30;5.97;;;16.40;99.90;;;;;;5016539;28;20171;-88
2022/05/22 06:54:49;;;;;;;4.77;4.37;;;16.40;99.90;;;;;;5020025;28;20175;-88
2022/05/22 06:57:37;;;;;;;3.73;2.80;;;16.70;99.90;;;;;;5002996;28;20222;-88
2022/05/22 07:00:16;;;;;;;2.83;2.53;;;16.70;99.90;;;;;;5001486;28;20643;-90
2022/05/22 07:03:00;;;;;;;3.73;2.43;;;16.80;99.90;;;;;;5019563;28;20245;-88
2022/05/22 07:05:46;;;;;;;4.27;2.53;;;17.10;99.90;;;;;;5009373;28;20222;-88
2022/05/22 07:08:31;;;;;;;3.93;2.40;;;17.10;99.90;;;;;;5018789;28;20190;-89
2022/05/22 07:11:38;;;;;;;3.10;2.80;;;17.30;99.90;;;;;;5006567;28;20210;-91
2022/05/22 07:14:24;;;;;;;3.57;2.40;;;17.40;99.90;;;;;;5008864;28;20179;-89
2022/05/22 07:17:13;;;;;;;2.83;2.63;;;17.60;99.90;;;;;;5015976;28;20229;-89
2022/05/22 07:20:09;;;;;;;3.80;2.70;;;17.80;99.90;;;;;;5015683;28;20360;-89
2022/05/22 07:22:54;;;;;;;3.40;2.63;;;18.00;99.90;;;;;;5018705;28;20221;-88
2022/05/22 07:25:39;;;;;;;3.65;2.40;;;18.20;99.90;;;;;;5018714;28;20237;-88
2022/05/22 07:28:07;;;;;;;4.22;2.58;;;18.20;99.90;;;;;;5016537;28;20188;-88
2022/05/22 07:30:53;;;;;;;3.63;2.53;;;18.50;99.90;;;;;;5001655;28;20185;-88
2022/05/22 07:33:44;;;;;;;3.33;2.42;;;18.40;99.90;;;;;;5002735;28;20181;-88
2022/05/22 07:36:46;;;;;;;3.63;2.70;;;18.60;99.90;;;;;;4961141;28;20207;-88
2022/05/22 07:39:19;;;;;;;3.15;2.10;;;18.80;99.90;;;;;;4997572;28;20259;-88
2022/05/22 07:42:05;;;;;;;3.75;2.20;;;19.00;99.90;;;;;;5033351;28;20178;-88
2022/05/22 07:44:52;;;;;;;3.10;2.35;;;19.30;99.90;;;;;;5022646;28;20182;-88
2022/05/22 07:47:42;;;;;;;4.43;2.15;;;19.40;99.90;;;;;;5014788;28;20202;-88
2022/05/22 07:50:22;;;;;;;4.00;2.47;;;19.70;99.90;;;;;;5029696;28;20643;-87
2022/05/22 07:53:08;;;;;;;3.78;2.70;;;19.90;99.90;;;;;;4989294;28;20552;-85
2022/05/22 07:55:37;;;;;;;3.67;2.20;;;20.10;99.90;;;;;;5036185;28;20183;-87
2022/05/22 07:58:28;;;;;;;5.03;2.13;;;20.40;99.90;;;;;;5047819;28;20279;-88
2022/05/22 08:01:28;;;;;;;3.50;2.25;;;20.50;99.90;;;;;;5038842;28;20165;-88
2022/05/22 08:04:07;;;;;;;3.00;1.85;;;20.70;99.90;;;;;;5033083;28;20194;-87
2022/05/22 08:07:00;;;;;;;2.88;2.00;;;21.00;99.90;;;;;;5018386;28;20264;-88
2022/05/22 08:09:42;;;;;;;2.72;1.92;;;21.10;99.90;;;;;;5000636;28;20177;-89
2022/05/22 08:12:09;;;;;;;2.80;2.05;;;21.30;99.90;;;;;;4998784;28;20806;-89
2022/05/22 08:14:35;;;;;;;2.63;1.90;;;21.50;99.90;;;;;;4999085;28;20336;-89
2022/05/22 08:17:03;;;;;;;3.20;1.90;;;21.60;99.90;;;;;;4999149;28;20285;-89
2022/05/22 08:19:29;;;;;;;2.72;1.80;;;21.30;99.90;;;;;;4998818;28;20197;-89
2022/05/22 08:22:18;;;;;;;2.75;1.75;;;21.50;99.90;;;;;;5018435;28;20252;-89
2022/05/22 08:25:04;;;;;;;3.72;2.00;;;21.50;99.90;;;;;;5018000;28;20178;-88
2022/05/22 08:27:31;;;;;;;3.30;2.08;;;21.80;99.90;;;;;;5001894;28;20206;-89
2022/05/22 08:29:58;;;;;;;3.22;1.75;;;21.90;99.90;;;;;;5018386;28;20174;-89
2022/05/22 08:32:27;;;;;;;3.67;1.67;;;21.90;99.90;;;;;;5034760;28;20216;-89
2022/05/22 08:34:54;;;;;;;3.08;1.83;;;22.20;99.90;;;;;;5034864;28;20197;-89
2022/05/22 08:37:20;;;;;;;2.50;1.75;;;22.50;99.90;;;;;;5019702;28;20202;-88
2022/05/22 08:39:46;;;;;;;2.67;1.70;;;22.50;99.90;;;;;;5036071;28;20189;-89
2022/05/22 08:42:19;;;;;;;1.88;1.50;;;22.90;99.90;;;;;;5034301;28;20177;-86
2022/05/22 08:44:50;;;;;;;3.03;1.70;;;23.10;99.90;;;;;;5036078;28;20185;-89
2022/05/22 08:47:20;;;;;;;3.55;1.77;;;23.20;99.90;;;;;;5034561;28;20264;-88
2022/05/22 08:50:03;;;;;;;2.00;1.60;;;23.00;99.90;;;;;;5034800;28;20257;-88
2022/05/22 08:52:34;;;;;;;2.08;1.70;;;23.10;99.90;;;;;;5034198;28;20200;-87
2022/05/22 08:55:06;;;;;;;2.75;1.60;;;23.20;99.90;;;;;;5017247;28;20186;-88
2022/05/22 09:00:30;;;;;;;1.60;1.50;;;23.10;99.90;;;;;;5034505;28;20182;-88
2022/05/22 09:03:18;;;;;;;1.58;1.30;;;23.00;99.90;;;;;;5035796;28;20635;-87
2022/05/22 09:05:48;;;;;;;2.47;1.48;;;23.10;99.90;;;;;;5034879;28;20198;-87
2022/05/22 09:08:44;;;;;;;2.63;1.40;;;23.10;99.90;;;;;;5035172;28;20182;-87
2022/05/22 09:11:38;;;;;;;2.55;1.38;;;23.00;99.90;;;;;;5035011;28;20240;-87
2022/05/22 09:14:24;;;;;;;2.00;1.60;;;23.00;99.90;;;;;;5016541;28;20190;-87
2022/05/22 09:17:13;;;;;;;1.65;1.50;;;23.10;99.90;;;;;;5034965;28;20202;-87
2022/05/22 09:19:46;;;;;;;3.03;1.50;;;23.40;99.90;;;;;;5034785;28;20154;-87
2022/05/22 09:22:45;;;;;;;3.38;1.83;;;23.70;99.90;;;;;;5036061;28;20182;-87
2022/05/22 09:25:14;;;;;;;2.55;1.80;;;23.60;99.90;;;;;;5018632;28;20194;-87
2022/05/22 09:28:18;;;;;;;2.50;1.35;;;23.70;99.90;;;;;;5015043;28;20190;-87
2022/05/22 09:31:13;;;;;;;2.53;1.40;;;23.80;99.90;;;;;;5004378;28;20182;-88
2022/05/22 09:34:14;;;;;;;1.73;1.60;;;23.50;99.90;;;;;;4977172;28;20187;-88
2022/05/22 09:36:57;;;;;;;3.35;1.38;;;23.10;99.90;;;;;;5018807;28;20220;-87
2022/05/22 09:39:44;;;;;;;1.83;1.35;;;23.20;99.90;;;;;;5002304;28;20231;-88
2022/05/22 09:42:39;;;;;;;1.90;1.30;;;23.30;99.90;;;;;;5018971;28;20152;-87
2022/05/22 09:45:08;;;;;;;2.13;1.45;;;23.60;99.90;;;;;;5018343;28;20187;-87
2022/05/22 09:48:06;;;;;;;3.03;1.50;;;23.80;99.90;;;;;;5014836;28;20198;-87
2022/05/22 09:50:44;;;;;;;2.00;1.80;;;23.90;99.90;;;;;;5037966;28;20158;-87
2022/05/22 09:53:28;;;;;;;1.83;1.38;;;23.80;99.90;;;;;;5028236;28;20182;-88
2022/05/22 09:56:06;;;;;;;1.20;1.10;;;23.60;99.20;;;;;;5018009;28;20202;-87
2022/05/22 09:59:00;;;;;;;3.20;1.40;;;23.60;99.60;;;;;;5022853;28;20209;-87
2022/05/22 10:01:33;;;;;;;1.95;1.08;;;23.60;99.50;;;;;;5022639;28;20186;-88
2022/05/22 10:04:22;;;;;;;2.90;1.10;;;23.90;99.90;;;;;;5001506;28;20278;-88
2022/05/22 10:07:15;;;;;;;1.63;1.10;;;23.80;98.00;;;;;;5011936;28;20205;-88
2022/05/22 10:10:03;;;;;;;1.33;1.23;;;23.70;98.40;;;;;;5002086;28;20269;-89
2022/05/22 10:12:42;;;;;;;1.60;1.10;;;23.90;97.70;;;;;;5036793;28;20253;-88
2022/05/22 10:15:32;;;;;;;1.42;1.10;;;24.10;97.90;;;;;;5013618;28;20185;-88
2022/05/22 10:18:29;;;;;;;1.92;0.93;;;24.30;97.10;;;;;;5000992;28;20187;-88
2022/05/22 10:21:16;;;;;;;1.45;0.90;;;24.30;96.70;;;;;;5000202;28;20175;-88
2022/05/22 10:24:18;;;;;;;1.80;0.98;;;24.70;96.10;;;;;;5034467;28;20242;-88
2022/05/22 10:27:16;;;;;;;2.13;1.17;;;25.00;95.20;;;;;;5000444;28;20220;-88
2022/05/22 10:30:02;;;;;;;1.50;1.30;;;25.00;94.20;;;;;;5005874;28;20202;-88
2022/05/22 10:32:38;;;;;;;2.30;1.20;;;24.70;93.60;;;;;;5005805;28;20261;-88
2022/05/22 10:35:24;;;;;;;1.90;1.00;;;24.70;94.40;;;;;;5035719;28;20170;-88
2022/05/22 10:38:22;;;;;;;1.77;0.98;;;24.80;94.30;;;;;;5031224;28;20194;-88
2022/05/22 10:43:45;;;;;;;1.67;0.88;;;25.10;91.70;;;;;;5027189;28;20182;-88
2022/05/22 10:46:12;;;;;;;2.42;1.17;;;25.40;90.70;;;;;;5044543;28;20229;-88
2022/05/22 10:48:52;;;;;;;1.00;0.70;;;25.60;86.00;;;;;;5007637;28;20186;-88
2022/05/22 10:51:24;;;;;;;0.85;0.70;;;25.80;85.90;;;;;;5036441;28;20225;-88
2022/05/22 10:53:54;;;;;;;1.60;0.75;;;26.00;85.60;;;;;;5036016;28;20178;-89
2022/05/22 10:56:24;;;;;;;1.98;0.80;;;26.20;79.00;;;;;;5034960;28;20212;-88
2022/05/22 10:58:54;;;;;;;1.25;0.75;;;25.70;75.20;;;;;;5049577;28;20281;-89
2022/05/22 11:01:28;;;;;;;1.40;1.00;;;25.50;71.50;;;;;;5017863;28;20174;-88
2022/05/22 11:04:06;;;;;;;0.85;0.85;;;25.60;80.30;;;;;;5052366;28;20196;-88
2022/05/22 11:06:34;;;;;;;1.30;0.90;;;26.00;82.40;;;;;;5052609;28;20243;-88
2022/05/22 11:09:07;;;;;;;2.30;1.17;;;26.30;81.50;;;;;;5051439;28;20630;-88
2022/05/22 11:11:35;;;;;;;0.90;0.80;;;26.50;80.60;;;;;;5042193;28;20186;-88
2022/05/22 11:14:21;;;;;;;1.38;0.90;;;26.70;79.70;;;;;;5052198;28;20185;-88
2022/05/22 11:16:47;;;;;;;1.42;1.00;;;27.00;81.10;;;;;;5018974;28;20205;-88
2022/05/22 11:19:25;;;;;;;1.48;1.00;;;27.20;80.00;;;;;;5035453;28;20285;-88
2022/05/22 11:22:07;;;;;;;1.30;0.98;;;27.20;77.30;;;;;;5027125;28;20189;-88
2022/05/22 11:25:02;;;;;;;0.90;0.85;;;27.30;79.30;;;;;;4999430;28;20175;-88
2022/05/22 11:28:06;;;;;;;1.45;0.90;;;27.40;78.70;;;;;;5021531;28;20272;-88
2022/05/22 11:30:54;;;;;;;2.47;0.90;;;27.50;78.30;;;;;;4958859;28;20200;-88
2022/05/22 11:33:40;;;;;;;1.70;0.90;;;27.60;80.60;;;;;;4953152;28;20182;-88
2022/05/22 11:36:24;;;;;;;2.05;1.38;;;27.20;76.90;;;;;;5001715;28;20212;-88
2022/05/22 11:39:32;;;;;;;2.83;1.15;;;27.20;79.40;;;;;;5018233;28;20253;-89
2022/05/22 11:42:25;;;;;;;1.30;1.00;;;27.10;79.50;;;;;;5007566;28;20186;-88
2022/05/22 11:45:33;;;;;;;1.13;0.90;;;26.60;76.20;;;;;;5018323;28;20216;-88
2022/05/22 11:48:25;;;;;;;1.23;0.95;;;26.40;76.40;;;;;;5019044;28;20181;-88
2022/05/22 11:50:58;;;;;;;1.23;0.90;;;26.30;77.80;;;;;;5034991;28;20192;-88
2022/05/22 11:54:12;;;;;;;0.90;0.90;;;26.20;77.90;;;;;;5035588;28;20173;-88
2022/05/22 11:57:07;;;;;;;1.23;0.93;;;26.10;78.30;;;;;;4959272;28;20203;-88
2022/05/22 11:59:48;;;;;;;1.05;0.80;;;26.10;78.40;;;;;;5018601;28;20178;-88
2022/05/22 12:02:24;;;;;;;0.80;0.80;;;26.20;78.10;;;;;;5018722;28;20235;-88
2022/05/22 12:05:05;;;;;;;0.82;0.80;;;26.20;78.90;;;;;;5019059;28;20186;-87
2022/05/22 12:07:51;;;;;;;1.95;0.98;;;26.40;80.30;;;;;;5005238;28;20213;-88
2022/05/22 12:10:50;;;;;;;1.30;0.80;;;26.40;80.10;;;;;;4998698;28;20178;-88
2022/05/22 12:13:21;;;;;;;1.17;0.90;;;26.40;81.30;;;;;;4999266;28;20174;-88
2022/05/22 12:15:57;;;;;;;1.00;0.90;;;26.60;80.40;;;;;;4998547;28;20211;-88
2022/05/22 12:18:38;;;;;;;1.75;0.88;;;26.50;80.40;;;;;;5003792;28;20185;-88
2022/05/22 12:21:23;;;;;;;1.88;1.08;;;26.60;80.70;;;;;;5018237;28;20170;-88
2022/05/22 12:24:08;;;;;;;1.25;0.77;;;26.80;81.80;;;;;;5034642;28;20208;-88
2022/05/22 12:26:55;;;;;;;1.80;1.00;;;26.90;79.70;;;;;;5031422;28;20205;-88
2022/05/22 12:29:31;;;;;;;0.90;0.85;;;26.80;79.50;;;;;;4997693;28;20166;-86
2022/05/22 12:31:59;;;;;;;1.27;1.00;;;26.90;80.00;;;;;;4998383;28;20163;-86
2022/05/22 12:34:34;;;;;;;2.13;1.02;;;26.90;81.40;;;;;;5014653;28;20186;-86
2022/05/22 12:37:02;;;;;;;3.38;1.00;;;26.80;81.30;;;;;;4997697;28;20210;-86
2022/05/22 12:39:31;;;;;;;1.33;0.70;;;26.60;80.40;;;;;;5012194;28;20204;-89
2022/05/22 12:42:10;;;;;;;2.30;1.00;;;26.70;82.40;;;;;;5034279;28;20240;-89
2022/05/22 12:44:42;;;;;;;1.15;1.00;;;26.70;80.70;;;;;;5035519;28;20174;-89
2022/05/22 12:47:15;;;;;;;0.88;0.85;;;26.80;80.90;;;;;;5021771;28;20272;-89
2022/05/22 12:49:57;;;;;;;1.50;0.90;;;26.90;79.80;;;;;;4998245;28;20182;-89
2022/05/22 12:52:30;;;;;;;1.73;0.80;;;26.80;79.90;;;;;;5026673;28;20173;-89
2022/05/22 12:55:09;;;;;;;0.95;0.88;;;27.00;79.70;;;;;;5034571;28;20170;-89
2022/05/22 12:57:36;;;;;;;1.00;0.80;;;27.00;79.90;;;;;;5036631;28;20255;-89
2022/05/22 13:00:17;;;;;;;1.33;0.80;;;27.20;80.40;;;;;;5037601;28;20174;-86
2022/05/22 13:02:46;;;;;;;2.13;1.20;;;27.50;78.40;;;;;;5023942;28;20228;-92
2022/05/22 13:05:24;;;;;;;1.77;0.80;;;27.50;78.20;;;;;;5038998;28;20262;-92
2022/05/22 13:07:51;;;;;;;1.50;0.90;;;27.80;79.80;;;;;;5009244;28;20268;-92
2022/05/22 13:10:58;;;;;;;1.38;1.02;;;28.20;77.80;;;;;;5032259;28;20178;-93
2022/05/22 13:17:53;;;;;;;1.65;1.00;;;28.20;74.60;;;;;;5051752;28;20255;-89
2022/05/22 13:20:25;;;;;;;2.05;1.10;;;28.50;75.80;;;;;;5028515;28;20191;-87
2022/05/22 13:23:03;;;;;;;2.38;1.05;;;28.80;74.60;;;;;;5001804;28;20228;-85
2022/05/22 13:25:43;;;;;;;0.82;0.82;;;29.10;73.40;;;;;;5001226;28;20197;-76
2022/05/22 13:28:53;;;;;;;0.82;0.82;;;29.10;74.10;;;;;;5001360;28;20177;-76
2022/05/22 13:31:38;;;;;;;1.67;0.90;;;28.50;72.60;;;;;;4990127;28;20336;-77
2022/05/22 13:34:19;;;;;;;0.98;0.85;;;28.20;74.10;;;;;;5001131;28;20182;-78
2022/05/22 13:37:02;;;;;;;2.90;1.40;;;28.20;73.20;;;;;;4999547;28;20211;-78
2022/05/22 13:39:49;;;;;;;0.80;0.80;;;27.90;75.20;;;;;;5001123;28;20196;-89
2022/05/22 13:42:40;;;;;;;1.23;0.90;;;27.70;76.00;;;;;;5001910;28;20198;-89
2022/05/22 13:45:55;;;;;;;1.60;1.00;;;27.60;75.90;;;;;;5001296;28;20260;-89
2022/05/22 13:48:41;;;;;;;1.20;1.10;;;27.60;76.20;;;;;;5001632;28;20183;-89
2022/05/22 13:54:25;;;;;;;1.05;0.80;;;27.70;76.10;;;;;;5017570;28;20186;-89